sensor_id;sensor_type;location;lat;lon;timestamp;temperature;humidity
14993;DHT22;7592;51.088;13.732;2023-05-10T00:04:04;13.80;99.90
14993;DHT22;7592;51.088;13.732;2023-05-10T00:08:56;13.80;99.90
14993;DHT22;7592;51.088;13.732;2023-05-10T00:13:48;13.70;99.90
14993;DHT22;7592;51.088;13.732;2023-05-10T00:18:41;13.60;99.90
14993;DHT22;7592;51.088;13.732;2023-05-10T00:23:33;13.70;99.90
14993;DHT22;7592;51.088;13.732;2023-05-10T00:28:27;13.70;99.90
14993;DHT22;7592;51.088;13.732;2023-05-10T00:33:21;13.50;99.90
14993;DHT22;7592;51.088;13.732;2023-05-10T00:38:13;13.50;99.90
14993;DHT22;7592;51.088;13.732;2023-05-10T00:43:06;13.40;99.90
14993;DHT22;7592;51.088;13.732;2023-05-10T00:48:00;13.30;99.90
14993;DHT22;7592;51.088;13.732;2023-05-10T00:52:52;13.30;99.90
14993;DHT22;7592;51.088;13.732;2023-05-10T00:57:45;13.20;99.90
14993;DHT22;7592;51.088;13.732;2023-05-10T01:02:37;13.20;99.90
14993;DHT22;7592;51.088;13.732;2023-05-10T01:07:39;13.10;99.90
14993;DHT22;7592;51.088;13.732;2023-05-10T01:12:33;13.10;99.90
14993;DHT22;7592;51.088;13.732;2023-05-10T01:17:26;13.00;99.90
14993;DHT22;7592;51.088;13.732;2023-05-10T01:22:53;12.90;99.90
14993;DHT22;7592;51.088;13.732;2023-05-10T01:28:03;12.80;99.90
14993;DHT22;7592;51.088;13.732;2023-05-10T01:43:01;12.60;99.90
14993;DHT22;7592;51.088;13.732;2023-05-10T01:48:06;12.50;99.90
14993;DHT22;7592;51.088;13.732;2023-05-10T01:53:00;12.50;99.90
14993;DHT22;7592;51.088;13.732;2023-05-10T02:03:20;12.40;99.90
14993;DHT22;7592;51.088;13.732;2023-05-10T02:08:14;12.30;99.90
14993;DHT22;7592;51.088;13.732;2023-05-10T02:13:10;12.30;99.90
14993;DHT22;7592;51.088;13.732;2023-05-10T02:18:04;12.30;99.90
14993;DHT22;7592;51.088;13.732;2023-05-10T02:23:00;12.20;99.90
14993;DHT22;7592;51.088;13.732;2023-05-10T02:27:55;12.20;99.90
14993;DHT22;7592;51.088;13.732;2023-05-10T02:32:49;12.20;99.90
14993;DHT22;7592;51.088;13.732;2023-05-10T02:37:43;12.20;99.90
14993;DHT22;7592;51.088;13.732;2023-05-10T02:42:37;12.10;99.90
14993;DHT22;7592;51.088;13.732;2023-05-10T02:47:29;12.20;99.90
14993;DHT22;7592;51.088;13.732;2023-05-10T02:52:25;12.10;99.90
14993;DHT22;7592;51.088;13.732;2023-05-10T02:57:31;12.20;99.90
14993;DHT22;7592;51.088;13.732;2023-05-10T03:02:26;12.10;99.90
14993;DHT22;7592;51.088;13.732;2023-05-10T03:07:18;12.20;99.90
14993;DHT22;7592;51.088;13.732;2023-05-10T03:18:01;12.10;99.90
14993;DHT22;7592;51.088;13.732;2023-05-10T03:22:59;12.10;99.90
14993;DHT22;7592;51.088;13.732;2023-05-10T03:27:54;12.00;99.90
14993;DHT22;7592;51.088;13.732;2023-05-10T03:32:47;12.10;99.90
14993;DHT22;7592;51.088;13.732;2023-05-10T03:37:41;12.10;99.90
14993;DHT22;7592;51.088;13.732;2023-05-10T03:42:34;12.10;99.90
14993;DHT22;7592;51.088;13.732;2023-05-10T03:47:26;12.10;99.90
14993;DHT22;7592;51.088;13.732;2023-05-10T03:52:18;12.20;99.90
14993;DHT22;7592;51.088;13.732;2023-05-10T03:57:10;12.20;99.90
14993;DHT22;7592;51.088;13.732;2023-05-10T04:02:03;12.20;99.90
14993;DHT22;7592;51.088;13.732;2023-05-10T04:06:55;12.20;99.90
14993;DHT22;7592;51.088;13.732;2023-05-10T04:11:48;12.20;99.90
14993;DHT22;7592;51.088;13.732;2023-05-10T04:16:40;13.10;99.90
14993;DHT22;7592;51.088;13.732;2023-05-10T04:21:32;13.10;99.90
14993;DHT22;7592;51.088;13.732;2023-05-10T04:26:24;14.90;99.90
14993;DHT22;7592;51.088;13.732;2023-05-10T04:31:17;18.40;99.90
14993;DHT22;7592;51.088;13.732;2023-05-10T04:36:09;19.60;92.40
14993;DHT22;7592;51.088;13.732;2023-05-10T04:41:08;21.70;84.00
14993;DHT22;7592;51.088;13.732;2023-05-10T04:46:00;22.10;77.10
14993;DHT22;7592;51.088;13.732;2023-05-10T04:50:52;22.30;73.40
14993;DHT22;7592;51.088;13.732;2023-05-10T04:55:45;24.10;67.80
14993;DHT22;7592;51.088;13.732;2023-05-10T05:00:37;23.40;66.00
14993;DHT22;7592;51.088;13.732;2023-05-10T05:05:30;22.80;66.70
14993;DHT22;7592;51.088;13.732;2023-05-10T05:10:22;23.20;65.80
14993;DHT22;7592;51.088;13.732;2023-05-10T05:15:14;24.30;62.50
14993;DHT22;7592;51.088;13.732;2023-05-10T05:20:08;24.30;62.10
14993;DHT22;7592;51.088;13.732;2023-05-10T05:25:00;25.80;59.30
14993;DHT22;7592;51.088;13.732;2023-05-10T05:29:56;25.90;58.30
14993;DHT22;7592;51.088;13.732;2023-05-10T05:34:48;25.70;57.40
14993;DHT22;7592;51.088;13.732;2023-05-10T05:39:40;25.40;58.40
14993;DHT22;7592;51.088;13.732;2023-05-10T05:44:33;26.60;56.60
14993;DHT22;7592;51.088;13.732;2023-05-10T05:49:25;25.60;56.40
14993;DHT22;7592;51.088;13.732;2023-05-10T05:54:17;26.30;56.30
14993;DHT22;7592;51.088;13.732;2023-05-10T05:59:09;27.00;54.90
14993;DHT22;7592;51.088;13.732;2023-05-10T06:04:02;26.60;55.40
14993;DHT22;7592;51.088;13.732;2023-05-10T06:08:55;27.60;53.70
14993;DHT22;7592;51.088;13.732;2023-05-10T06:13:47;28.10;53.60
14993;DHT22;7592;51.088;13.732;2023-05-10T06:18:39;29.30;52.30
14993;DHT22;7592;51.088;13.732;2023-05-10T06:23:32;28.30;52.60
14993;DHT22;7592;51.088;13.732;2023-05-10T06:28:24;27.90;53.10
14993;DHT22;7592;51.088;13.732;2023-05-10T06:33:16;27.90;52.60
14993;DHT22;7592;51.088;13.732;2023-05-10T06:38:08;27.80;52.40
14993;DHT22;7592;51.088;13.732;2023-05-10T06:43:00;28.70;52.50
14993;DHT22;7592;51.088;13.732;2023-05-10T06:47:52;29.80;50.30
14993;DHT22;7592;51.088;13.732;2023-05-10T06:52:44;28.40;51.40
14993;DHT22;7592;51.088;13.732;2023-05-10T06:57:36;28.90;51.30
14993;DHT22;7592;51.088;13.732;2023-05-10T07:02:28;29.70;50.40
14993;DHT22;7592;51.088;13.732;2023-05-10T07:07:21;29.30;50.70
14993;DHT22;7592;51.088;13.732;2023-05-10T07:12:13;28.30;51.90
14993;DHT22;7592;51.088;13.732;2023-05-10T07:17:06;27.70;52.20
14993;DHT22;7592;51.088;13.732;2023-05-10T07:21:59;28.10;52.10
14993;DHT22;7592;51.088;13.732;2023-05-10T07:26:52;28.60;52.00
14993;DHT22;7592;51.088;13.732;2023-05-10T07:31:45;28.60;52.20
14993;DHT22;7592;51.088;13.732;2023-05-10T07:36:38;28.50;52.00
14993;DHT22;7592;51.088;13.732;2023-05-10T07:41:30;28.20;52.20
14993;DHT22;7592;51.088;13.732;2023-05-10T07:46:22;27.60;53.90
14993;DHT22;7592;51.088;13.732;2023-05-10T07:51:14;28.10;52.50
14993;DHT22;7592;51.088;13.732;2023-05-10T07:56:26;28.60;52.30
14993;DHT22;7592;51.088;13.732;2023-05-10T08:01:22;29.60;51.60
14993;DHT22;7592;51.088;13.732;2023-05-10T08:06:16;29.60;51.20
14993;DHT22;7592;51.088;13.732;2023-05-10T08:11:08;29.60;50.80
14993;DHT22;7592;51.088;13.732;2023-05-10T08:16:00;29.20;51.50
14993;DHT22;7592;51.088;13.732;2023-05-10T08:20:52;30.00;50.00
14993;DHT22;7592;51.088;13.732;2023-05-10T08:25:45;28.90;51.00
14993;DHT22;7592;51.088;13.732;2023-05-10T08:30:37;27.80;52.30
14993;DHT22;7592;51.088;13.732;2023-05-10T08:35:29;28.40;51.70
14993;DHT22;7592;51.088;13.732;2023-05-10T08:40:24;29.70;50.00
14993;DHT22;7592;51.088;13.732;2023-05-10T08:45:17;30.60;49.80
14993;DHT22;7592;51.088;13.732;2023-05-10T08:50:11;30.70;49.50
14993;DHT22;7592;51.088;13.732;2023-05-10T08:55:04;29.70;49.90
14993;DHT22;7592;51.088;13.732;2023-05-10T08:59:56;30.40;49.50
14993;DHT22;7592;51.088;13.732;2023-05-10T09:04:48;30.90;49.00
14993;DHT22;7592;51.088;13.732;2023-05-10T09:09:41;30.30;49.60
14993;DHT22;7592;51.088;13.732;2023-05-10T09:14:35;30.60;49.40
14993;DHT22;7592;51.088;13.732;2023-05-10T09:19:28;31.70;48.30
14993;DHT22;7592;51.088;13.732;2023-05-10T09:24:25;31.10;48.60
14993;DHT22;7592;51.088;13.732;2023-05-10T09:29:17;31.80;48.30
14993;DHT22;7592;51.088;13.732;2023-05-10T09:34:09;33.50;47.40
14993;DHT22;7592;51.088;13.732;2023-05-10T09:39:02;32.30;48.00
14993;DHT22;7592;51.088;13.732;2023-05-10T09:43:57;32.90;46.80
14993;DHT22;7592;51.088;13.732;2023-05-10T09:48:49;34.50;45.60
14993;DHT22;7592;51.088;13.732;2023-05-10T09:53:43;34.80;45.60
14993;DHT22;7592;51.088;13.732;2023-05-10T09:58:39;33.90;46.30
14993;DHT22;7592;51.088;13.732;2023-05-10T10:03:31;31.90;47.30
14993;DHT22;7592;51.088;13.732;2023-05-10T10:08:23;32.90;46.80
14993;DHT22;7592;51.088;13.732;2023-05-10T10:13:16;33.40;46.00
14993;DHT22;7592;51.088;13.732;2023-05-10T10:18:13;32.70;46.90
14993;DHT22;7592;51.088;13.732;2023-05-10T10:23:08;32.30;47.40
14993;DHT22;7592;51.088;13.732;2023-05-10T10:28:16;31.70;47.40
14993;DHT22;7592;51.088;13.732;2023-05-10T10:43:39;30.40;49.60
14993;DHT22;7592;51.088;13.732;2023-05-10T10:48:31;30.30;49.20
14993;DHT22;7592;51.088;13.732;2023-05-10T10:53:26;31.00;49.30
14993;DHT22;7592;51.088;13.732;2023-05-10T10:58:30;30.60;49.80
14993;DHT22;7592;51.088;13.732;2023-05-10T11:03:25;29.70;50.90
14993;DHT22;7592;51.088;13.732;2023-05-10T11:08:34;27.80;52.20
14993;DHT22;7592;51.088;13.732;2023-05-10T11:18:30;27.40;52.90
14993;DHT22;7592;51.088;13.732;2023-05-10T11:23:23;27.90;52.80
14993;DHT22;7592;51.088;13.732;2023-05-10T11:28:17;27.10;53.80
14993;DHT22;7592;51.088;13.732;2023-05-10T11:33:14;27.00;53.80
14993;DHT22;7592;51.088;13.732;2023-05-10T11:38:09;25.00;56.50
14993;DHT22;7592;51.088;13.732;2023-05-10T11:43:02;24.10;58.60
14993;DHT22;7592;51.088;13.732;2023-05-10T11:47:58;23.50;59.00
14993;DHT22;7592;51.088;13.732;2023-05-10T11:52:55;23.10;59.50
14993;DHT22;7592;51.088;13.732;2023-05-10T11:57:47;23.10;60.80
14993;DHT22;7592;51.088;13.732;2023-05-10T12:02:43;23.00;60.00
14993;DHT22;7592;51.088;13.732;2023-05-10T12:07:35;22.90;61.50
14993;DHT22;7592;51.088;13.732;2023-05-10T12:12:27;23.10;60.70
14993;DHT22;7592;51.088;13.732;2023-05-10T12:17:29;23.20;61.90
14993;DHT22;7592;51.088;13.732;2023-05-10T12:22:22;23.70;60.00
14993;DHT22;7592;51.088;13.732;2023-05-10T12:27:14;23.40;60.40
14993;DHT22;7592;51.088;13.732;2023-05-10T12:32:06;23.00;60.00
14993;DHT22;7592;51.088;13.732;2023-05-10T12:36:58;23.00;61.20
14993;DHT22;7592;51.088;13.732;2023-05-10T12:41:51;22.90;60.80
14993;DHT22;7592;51.088;13.732;2023-05-10T12:46:43;23.20;61.50
14993;DHT22;7592;51.088;13.732;2023-05-10T12:51:35;23.30;60.60
14993;DHT22;7592;51.088;13.732;2023-05-10T12:56:28;23.40;59.90
14993;DHT22;7592;51.088;13.732;2023-05-10T13:01:20;23.30;61.40
14993;DHT22;7592;51.088;13.732;2023-05-10T13:06:13;23.40;61.30
14993;DHT22;7592;51.088;13.732;2023-05-10T13:11:05;23.50;60.00
14993;DHT22;7592;51.088;13.732;2023-05-10T13:15:57;23.30;60.90
14993;DHT22;7592;51.088;13.732;2023-05-10T13:20:49;23.30;61.10
14993;DHT22;7592;51.088;13.732;2023-05-10T13:25:42;23.60;59.30
14993;DHT22;7592;51.088;13.732;2023-05-10T13:30:34;23.50;59.50
14993;DHT22;7592;51.088;13.732;2023-05-10T13:35:26;23.60;60.40
14993;DHT22;7592;51.088;13.732;2023-05-10T13:40:18;23.60;60.70
14993;DHT22;7592;51.088;13.732;2023-05-10T13:45:12;23.60;60.60
14993;DHT22;7592;51.088;13.732;2023-05-10T13:50:05;23.90;61.50
14993;DHT22;7592;51.088;13.732;2023-05-10T13:54:58;24.50;62.00
14993;DHT22;7592;51.088;13.732;2023-05-10T13:59:50;24.80;67.60
14993;DHT22;7592;51.088;13.732;2023-05-10T14:04:42;25.00;66.90
14993;DHT22;7592;51.088;13.732;2023-05-10T14:09:34;25.20;67.20
14993;DHT22;7592;51.088;13.732;2023-05-10T14:14:26;25.10;67.50
14993;DHT22;7592;51.088;13.732;2023-05-10T14:19:21;25.20;66.90
14993;DHT22;7592;51.088;13.732;2023-05-10T14:24:13;25.20;67.20
14993;DHT22;7592;51.088;13.732;2023-05-10T14:29:05;25.20;67.00
14993;DHT22;7592;51.088;13.732;2023-05-10T14:33:57;25.30;67.60
14993;DHT22;7592;51.088;13.732;2023-05-10T14:38:49;25.20;66.60
14993;DHT22;7592;51.088;13.732;2023-05-10T14:43:42;25.20;68.20
14993;DHT22;7592;51.088;13.732;2023-05-10T14:48:34;25.10;68.20
14993;DHT22;7592;51.088;13.732;2023-05-10T14:53:26;24.90;70.10
14993;DHT22;7592;51.088;13.732;2023-05-10T14:58:19;24.80;70.00
14993;DHT22;7592;51.088;13.732;2023-05-10T15:03:11;24.70;71.00
14993;DHT22;7592;51.088;13.732;2023-05-10T15:08:04;24.50;71.90
14993;DHT22;7592;51.088;13.732;2023-05-10T15:12:57;24.50;71.50
14993;DHT22;7592;51.088;13.732;2023-05-10T15:17:50;24.30;73.20
14993;DHT22;7592;51.088;13.732;2023-05-10T15:22:43;24.10;74.50
14993;DHT22;7592;51.088;13.732;2023-05-10T15:27:36;23.90;75.10
14993;DHT22;7592;51.088;13.732;2023-05-10T15:32:28;23.80;77.60
14993;DHT22;7592;51.088;13.732;2023-05-10T15:37:21;23.70;77.90
14993;DHT22;7592;51.088;13.732;2023-05-10T15:42:15;23.60;79.10
14993;DHT22;7592;51.088;13.732;2023-05-10T15:47:07;23.50;79.50
14993;DHT22;7592;51.088;13.732;2023-05-10T15:51:59;23.50;80.30
14993;DHT22;7592;51.088;13.732;2023-05-10T15:56:51;23.50;80.20
14993;DHT22;7592;51.088;13.732;2023-05-10T16:01:45;23.40;79.50
14993;DHT22;7592;51.088;13.732;2023-05-10T16:06:39;23.10;80.80
14993;DHT22;7592;51.088;13.732;2023-05-10T16:11:31;23.00;82.10
14993;DHT22;7592;51.088;13.732;2023-05-10T16:16:24;22.70;82.90
14993;DHT22;7592;51.088;13.732;2023-05-10T16:21:16;22.70;84.60
14993;DHT22;7592;51.088;13.732;2023-05-10T16:26:08;22.60;84.00
14993;DHT22;7592;51.088;13.732;2023-05-10T16:31:00;22.40;85.50
14993;DHT22;7592;51.088;13.732;2023-05-10T16:35:52;22.20;86.50
14993;DHT22;7592;51.088;13.732;2023-05-10T16:40:44;22.20;87.40
14993;DHT22;7592;51.088;13.732;2023-05-10T16:45:37;22.10;88.30
14993;DHT22;7592;51.088;13.732;2023-05-10T16:50:29;22.10;87.90
14993;DHT22;7592;51.088;13.732;2023-05-10T16:55:21;22.00;88.10
14993;DHT22;7592;51.088;13.732;2023-05-10T17:00:16;21.90;89.40
14993;DHT22;7592;51.088;13.732;2023-05-10T17:05:11;21.80;90.50
14993;DHT22;7592;51.088;13.732;2023-05-10T17:10:04;21.50;90.90
14993;DHT22;7592;51.088;13.732;2023-05-10T17:14:58;21.40;91.90
14993;DHT22;7592;51.088;13.732;2023-05-10T17:19:51;21.20;92.90
14993;DHT22;7592;51.088;13.732;2023-05-10T17:24:44;21.00;93.70
14993;DHT22;7592;51.088;13.732;2023-05-10T17:29:37;20.90;94.70
14993;DHT22;7592;51.088;13.732;2023-05-10T17:34:29;20.80;96.80
14993;DHT22;7592;51.088;13.732;2023-05-10T17:39:21;20.70;99.90
14993;DHT22;7592;51.088;13.732;2023-05-10T17:44:13;20.50;99.90
14993;DHT22;7592;51.088;13.732;2023-05-10T17:49:05;20.40;99.90
14993;DHT22;7592;51.088;13.732;2023-05-10T17:53:58;20.20;99.90
14993;DHT22;7592;51.088;13.732;2023-05-10T17:58:51;20.20;99.90
14993;DHT22;7592;51.088;13.732;2023-05-10T18:03:44;20.00;99.90
14993;DHT22;7592;51.088;13.732;2023-05-10T18:08:38;19.90;99.90
14993;DHT22;7592;51.088;13.732;2023-05-10T18:13:30;19.80;99.90
14993;DHT22;7592;51.088;13.732;2023-05-10T18:18:22;19.60;99.90
14993;DHT22;7592;51.088;13.732;2023-05-10T18:23:15;19.50;99.90
14993;DHT22;7592;51.088;13.732;2023-05-10T18:28:07;19.40;99.90
14993;DHT22;7592;51.088;13.732;2023-05-10T18:32:59;19.30;99.90
14993;DHT22;7592;51.088;13.732;2023-05-10T18:37:51;19.20;99.90
14993;DHT22;7592;51.088;13.732;2023-05-10T18:42:44;19.20;99.90
14993;DHT22;7592;51.088;13.732;2023-05-10T18:47:37;19.10;99.90
14993;DHT22;7592;51.088;13.732;2023-05-10T18:52:29;19.00;99.90
14993;DHT22;7592;51.088;13.732;2023-05-10T18:57:22;18.80;99.90
14993;DHT22;7592;51.088;13.732;2023-05-10T19:02:14;18.60;99.90
14993;DHT22;7592;51.088;13.732;2023-05-10T19:07:07;18.30;99.90
14993;DHT22;7592;51.088;13.732;2023-05-10T19:11:59;18.00;99.90
14993;DHT22;7592;51.088;13.732;2023-05-10T19:16:51;17.80;99.90
14993;DHT22;7592;51.088;13.732;2023-05-10T19:21:45;17.60;99.90
14993;DHT22;7592;51.088;13.732;2023-05-10T19:26:40;17.60;99.90
14993;DHT22;7592;51.088;13.732;2023-05-10T19:31:32;17.60;99.90
14993;DHT22;7592;51.088;13.732;2023-05-10T19:36:25;17.70;99.90
14993;DHT22;7592;51.088;13.732;2023-05-10T19:41:17;17.70;99.90
14993;DHT22;7592;51.088;13.732;2023-05-10T19:46:09;17.70;99.90
14993;DHT22;7592;51.088;13.732;2023-05-10T19:51:03;17.60;99.90
14993;DHT22;7592;51.088;13.732;2023-05-10T19:56:06;17.50;99.90
14993;DHT22;7592;51.088;13.732;2023-05-10T20:00:58;17.40;99.90
14993;DHT22;7592;51.088;13.732;2023-05-10T20:05:50;17.20;99.90
14993;DHT22;7592;51.088;13.732;2023-05-10T20:10:43;16.90;99.90
14993;DHT22;7592;51.088;13.732;2023-05-10T20:15:35;16.70;99.90
14993;DHT22;7592;51.088;13.732;2023-05-10T20:20:27;16.40;99.90
14993;DHT22;7592;51.088;13.732;2023-05-10T20:25:20;16.30;99.90
14993;DHT22;7592;51.088;13.732;2023-05-10T20:30:13;16.10;99.90
14993;DHT22;7592;51.088;13.732;2023-05-10T20:35:06;16.00;99.90
14993;DHT22;7592;51.088;13.732;2023-05-10T20:39:59;15.90;99.90
14993;DHT22;7592;51.088;13.732;2023-05-10T20:44:51;15.90;99.90
14993;DHT22;7592;51.088;13.732;2023-05-10T20:49:44;15.80;99.90
14993;DHT22;7592;51.088;13.732;2023-05-10T20:54:36;15.60;99.90
14993;DHT22;7592;51.088;13.732;2023-05-10T20:59:29;15.60;99.90
14993;DHT22;7592;51.088;13.732;2023-05-10T21:04:22;15.50;99.90
14993;DHT22;7592;51.088;13.732;2023-05-10T21:09:14;15.30;99.90
14993;DHT22;7592;51.088;13.732;2023-05-10T21:14:07;15.10;99.90
14993;DHT22;7592;51.088;13.732;2023-05-10T21:19:00;15.10;99.90
14993;DHT22;7592;51.088;13.732;2023-05-10T21:23:52;15.00;99.90
14993;DHT22;7592;51.088;13.732;2023-05-10T21:28:45;15.10;99.90
14993;DHT22;7592;51.088;13.732;2023-05-10T21:33:37;15.00;99.90
14993;DHT22;7592;51.088;13.732;2023-05-10T21:38:30;15.00;99.90
14993;DHT22;7592;51.088;13.732;2023-05-10T21:43:22;14.80;99.90
14993;DHT22;7592;51.088;13.732;2023-05-10T21:48:14;14.70;99.90
14993;DHT22;7592;51.088;13.732;2023-05-10T21:53:06;14.50;99.90
14993;DHT22;7592;51.088;13.732;2023-05-10T21:57:58;14.50;99.90
14993;DHT22;7592;51.088;13.732;2023-05-10T22:02:50;14.40;99.90
14993;DHT22;7592;51.088;13.732;2023-05-10T22:07:44;14.40;99.90
14993;DHT22;7592;51.088;13.732;2023-05-10T22:12:36;14.30;99.90
14993;DHT22;7592;51.088;13.732;2023-05-10T22:17:28;14.10;99.90
14993;DHT22;7592;51.088;13.732;2023-05-10T22:22:20;14.00;99.90
14993;DHT22;7592;51.088;13.732;2023-05-10T22:27:13;13.90;99.90
14993;DHT22;7592;51.088;13.732;2023-05-10T22:32:05;13.90;99.90
14993;DHT22;7592;51.088;13.732;2023-05-10T22:36:58;13.90;99.90
14993;DHT22;7592;51.088;13.732;2023-05-10T22:41:50;13.80;99.90
14993;DHT22;7592;51.088;13.732;2023-05-10T22:46:43;13.60;99.90
14993;DHT22;7592;51.088;13.732;2023-05-10T22:51:36;13.50;99.90
14993;DHT22;7592;51.088;13.732;2023-05-10T22:56:28;13.50;99.90
14993;DHT22;7592;51.088;13.732;2023-05-10T23:01:20;13.40;99.90
14993;DHT22;7592;51.088;13.732;2023-05-10T23:06:12;13.30;99.90
14993;DHT22;7592;51.088;13.732;2023-05-10T23:11:04;13.30;99.90
14993;DHT22;7592;51.088;13.732;2023-05-10T23:15:56;13.20;99.90
14993;DHT22;7592;51.088;13.732;2023-05-10T23:20:48;13.20;99.90
14993;DHT22;7592;51.088;13.732;2023-05-10T23:25:40;13.20;99.90
14993;DHT22;7592;51.088;13.732;2023-05-10T23:30:32;13.10;99.90
14993;DHT22;7592;51.088;13.732;2023-05-10T23:35:26;13.10;99.90
14993;DHT22;7592;51.088;13.732;2023-05-10T23:40:18;13.10;99.90
14993;DHT22;7592;51.088;13.732;2023-05-10T23:45:10;13.10;99.90
14993;DHT22;7592;51.088;13.732;2023-05-10T23:50:06;13.10;99.90
14993;DHT22;7592;51.088;13.732;2023-05-10T23:54:59;13.10;99.90
14993;DHT22;7592;51.088;13.732;2023-05-10T23:59:51;13.00;99.90
